Station info - map view · info · telemetry · weather · raw · status · beacons · messages · bulletins · browse · moving · my account
Callsign, ship name or locator: Clear       
It is possible to search using wildcards (*?) after a prefix. Example: OH*
APRS station DL4JCP-9 - show graphs
Map loading...
Comment: 14.4V 17C HDOP01.1 SATS08DL4JCP-9 Chris parking with Opentracker+v1.3
Last status: 12.1V 15CDL4JCP-9 Chris mobile with Opentracker+v1.3
Location: 50°30.89' N 12°56.23' E - locator JO60LM23LN - show map - static map
0.6 miles West bearing 257° from Crottendorf, Direktionsbezirk Chemnitz, Saxony, Germany [?]
2.1 miles Southeast bearing 148° from Scheibenberg, Saxony, Germany
62.0 miles Southeast bearing 156° from Leipzig, Direktionsbezirk Leipzig, Saxony, Germany
71.8 miles Northwest bearing 295° from Prague, Hlavní Mesto Praha, Czech Republic
Last position: 2017-08-21 04:21:59 EDT (5m25s ago)
2017-08-21 10:21:59 CEST local time at Crottendorf, Germany [?]
Altitude: 2122 ft
Course: 228°
Speed: 2 MPH
Last telemetry: 2017-08-21 04:19:31 EDT (7m53s ago) – show telemetry
Ch 1: 147, Ch 2: 199, Ch 3: 222, Ch 4: 240, Ch 5: 193
 1     2     3     4     5     6     7     8 
Device: Argent Data Systems: OpenTracker (tracker)
Last path: DL4JCP-9>APOTC1 via WIDE1*,WIDE2-2,qAR,DB0ERZ (good)
Positions stored: 36594
Packet rate: 37 seconds between packets on average during 1613 seconds.
Other SSIDs: DL4JCP dl4jcp-5 DL4JCP-6 DL4JCP-8
Stations near current position of DL4JCP-9 - show more
callsign distance last heard - EDT      callsign distance last heard - EDT
DL4JCP-814.4 yards 255°2017-08-21 04:07:15 DL4JCP-627.0 yards 211°2017-08-21 04:24:44
dl4jcp-545.7 yards 240°2017-08-21 04:17:10 TS-25B2.2 miles 139°2017-08-18 15:26:12
M39130275.0 miles 294°2017-08-08 15:39:09 M3913027_5.3 miles 302°2017-08-08 15:40:15
DB0FIB B5.9 miles 173°2017-08-21 04:12:05 DB0FIB-B5.9 miles 173°2017-08-21 04:12:15
DB0FIB-106.0 miles 172°2017-08-21 04:24:57 ER-DB0FIB6.0 miles 172°2017-08-21 04:18:50
Fichtelbe6.0 miles 173°2017-08-21 04:18:11 M16430557.5 miles 84°2017-08-19 03:47:00
OK7SM B8.3 miles 171°2017-07-31 06:38:28 OK7SM-B8.3 miles 171°2017-07-31 06:38:38
M1643055_8.4 miles 84°2017-08-19 03:48:14 OK7SM-98.5 miles 187°2017-08-09 10:52:00
EL-DO8GT10.5 miles 331°2017-07-24 15:55:08 DO8GT-110.5 miles 331°2017-08-06 10:18:13
M3913421_11.3 miles 229°2017-08-09 09:23:16 EW877111.4 miles 243°2017-08-21 04:26:05
Stations which heard DL4JCP-9 directly on radio –
callsign pkts first heard - EDT last heard longest (tx => rx) longest at - EDT
DB0LMM 2 2017-08-11 03:44:48 2017-08-11 04:21:54 JO60JR > JO61EI 46.4 miles 339° 2017-08-11 03:44:48
DB0KX-2 2 2017-08-13 05:05:35 2017-08-13 05:37:53 JO31JO > JO31EG 30.3 miles 220° 2017-08-13 05:37:53
DB0KH 11 2017-08-11 06:04:40 2017-08-13 09:16:07 JO50FX > JO40RV 46.5 miles 265° 2017-08-13 09:16:07
DB0GER 18 2017-08-11 04:17:52 2017-08-17 06:05:52 JO60LK > JO60BV 47.8 miles 312° 2017-08-17 06:05:52
DB0GPS 1 2017-08-11 07:24:59 2017-08-11 07:24:59 JO41PI > JO41PU 34.4 miles 3° 2017-08-11 07:24:59
DB0END 1 2017-08-11 09:07:45 2017-08-11 09:07:45 JO31TO > JO31PH 24.9 miles 216° 2017-08-11 09:07:45
DB0RIE 11 2017-08-11 04:51:46 2017-08-13 09:46:27 JO50IV > JO50NV 17.6 miles 93° 2017-08-11 05:10:33
DM2HB 19 2017-08-11 08:00:20 2017-08-13 07:14:07 JO41AN > JO41EQ 17.6 miles 55° 2017-08-13 06:51:13
DM0MW 3 2017-08-19 07:02:25 2017-08-19 07:17:07 JO60KT > JO60LX 14.1 miles 22° 2017-08-19 07:02:25
DB0LPZ 1 2017-08-11 04:23:30 2017-08-11 04:23:30 JO50XV > JO61FI 38.4 miles 35° 2017-08-11 04:23:30
DH5JG 1 2017-08-11 09:56:07 2017-08-11 09:56:07 JO31KM > JO31KJ 8.7 miles 181° 2017-08-11 09:56:07
DB0ABB 2 2017-08-11 07:24:11 2017-08-13 07:31:36 JO41ML > JO41UO 30.0 miles 72° 2017-08-13 07:31:36
DB0ESA 11 2017-08-11 05:31:28 2017-08-13 09:17:47 JO50GW > JO50DX 10.2 miles 294° 2017-08-11 05:31:28
DB0TAN 2 2017-08-11 06:15:34 2017-08-13 08:35:53 JO40SW > JO40XL 34.6 miles 150° 2017-08-13 08:35:53
OK0BBK-2 1 2017-08-17 05:47:27 2017-08-17 05:47:27 JO60LJ > JO70PO 102.6 miles 82° 2017-08-17 05:47:27
DB8AS-10 16 2017-08-11 06:59:39 2017-08-13 08:02:19 JO41RD > JO41RH 13.2 miles 3° 2017-08-13 08:02:19
DB0DRI 3 2017-08-11 07:24:40 2017-08-13 07:19:33 JO41PI > JO41MS 30.0 miles 343° 2017-08-11 07:24:40
DB0HAT 32 2017-08-11 07:59:50 2017-08-13 06:50:44 JO41IO > JO31VQ 40.0 miles 280° 2017-08-11 07:59:50
DB0HDF 16 2017-08-11 04:05:35 2017-08-13 10:16:18 JO60HT > JO50WV 34.7 miles 280° 2017-08-11 04:05:35
DB0PIB 2 2017-08-19 07:28:34 2017-08-19 09:55:23 JO61SB > JO71EC 36.5 miles 84° 2017-08-19 07:28:34
DB0MAK 4 2017-08-17 05:47:58 2017-08-17 06:05:33 JO60LK > JO60BA 46.6 miles 231° 2017-08-17 06:04:24
DB0ERZ 97 2017-08-11 03:20:39 2017-08-21 03:58:34 JO50WV > JO60HK 45.9 miles 129° 2017-08-13 10:06:47
PI1SGM-2 8 2017-08-11 10:29:33 2017-08-13 04:53:13 JO31BT > JO32HA 25.2 miles 52° 2017-08-11 10:50:46
OK0DRB-1 1 2017-08-17 06:05:17 2017-08-17 06:05:17 JO60LK > JO60SB 34.1 miles 134° 2017-08-17 06:05:17
DB0FTS-10 2 2017-08-11 05:52:59 2017-08-13 08:54:23 JO40WV > JO50IO 43.5 miles 116° 2017-08-13 08:54:23
DB0ZV 2 2017-08-11 08:47:59 2017-08-11 09:02:01 JO31UN > JO31RJ 15.5 miles 209° 2017-08-11 09:02:01
DB0PBS-1 2 2017-08-11 08:00:52 2017-08-13 07:16:01 JO41IO > JO41JQ 9.1 miles 25° 2017-08-13 07:16:01
DB0FBB 11 2017-08-11 08:55:29 2017-08-13 06:33:01 JO31UM > JO31RM 7.9 miles 273° 2017-08-11 08:55:29
DO7LW-10 1 2017-08-11 07:55:26 2017-08-11 07:55:26 JO41JN > JO41IM 5.2 miles 242° 2017-08-11 07:55:26
DB0ZWI-10 5 2017-08-11 04:04:02 2017-08-13 10:32:20 JO60HT > JO60FR 10.1 miles 240° 2017-08-13 10:32:20
DF0WUN 5 2017-08-17 05:49:53 2017-08-17 06:06:06 JO60LK > JO50WB 55.1 miles 242° 2017-08-17 06:04:28
DK5DC 15 2017-08-11 08:29:10 2017-08-11 09:06:20 JO31TN > JO31WN 10.5 miles 81° 2017-08-11 08:59:32
DB1AN 13 2017-08-11 10:22:12 2017-08-13 04:48:42 JO31IQ > JO31DP 16.8 miles 261° 2017-08-11 10:22:12
DL1MR-10 1 2017-08-11 09:19:57 2017-08-11 09:19:57 JO31QO > JO31OP 8.1 miles 305° 2017-08-11 09:19:57
DB0SAX 12 2017-08-18 03:19:26 2017-08-19 10:25:44 JO60LN > JO61LC 38.4 miles 2° 2017-08-18 04:30:04
DB0HHB 1 2017-08-17 05:50:35 2017-08-17 05:50:35 JO60LK > JN69LF 82.4 miles 181° 2017-08-17 05:50:35
DL2AJB 5 2017-08-13 09:10:24 2017-08-13 09:18:01 JO51DA > JO50HX 14.2 miles 93° 2017-08-13 09:10:24
DB0FIB-10 24 2017-08-09 09:01:37 2017-08-18 05:13:29 JO60EU > JO60LK 37.9 miles 138° 2017-08-11 04:11:49
DG1JLA-3 25 2017-08-17 06:04:20 2017-08-19 10:20:00 JO60LK > JO60LV 32.9 miles 2° 2017-08-17 06:04:20
DB0NLH 2 2017-08-11 08:13:07 2017-08-11 08:20:44 JO41BN > JO42DC 39.2 miles 8° 2017-08-11 08:20:44
DO4DR-10 42 2017-08-11 03:45:19 2017-08-19 10:31:50 JO60LK > JO60GT 32.7 miles 327° 2017-08-17 05:51:38
DL4ZJ-1 5 2017-08-11 04:54:47 2017-08-11 04:59:57 JO50NV > JO50LV 6.6 miles 259° 2017-08-11 04:54:47
DF4DR-10 15 2017-08-11 08:56:00 2017-08-13 06:37:04 JO31TO > JO31SM 8.2 miles 226° 2017-08-11 09:07:42
DO2JMG 2 2017-08-11 07:58:58 2017-08-11 08:04:24 JO41IN > JO42EC 38.5 miles 338° 2017-08-11 07:58:58
DF4AE-11 15 2017-08-11 04:43:04 2017-08-13 09:51:51 JO50OW > JO51SA 14.3 miles 69° 2017-08-13 09:43:58
DB0KV-10 39 2017-08-11 10:40:09 2017-08-13 04:40:59 JO31CU > JO31BS 7.5 miles 226° 2017-08-11 10:40:09
DC4FY-2 8 2017-08-11 05:51:53 2017-08-13 08:57:54 JO40TU > JO40XX 16.6 miles 62° 2017-08-11 06:13:55
DD3UTS-3 1 2017-08-19 09:54:10 2017-08-19 09:54:10 JO61TB > JO60XX 14.5 miles 118° 2017-08-19 09:54:10
DB0NOS 24 2017-08-11 07:47:47 2017-08-13 07:17:23 JO31VM > JO41HW 46.5 miles 53° 2017-08-13 06:43:03
DB0ERF-10 38 2017-08-11 04:47:57 2017-08-13 09:45:36 JO50IV > JO50MX 17.1 miles 76° 2017-08-13 09:22:38
DB0NX-10 3 2017-08-11 08:49:35 2017-08-11 08:54:05 JO31UM > JO31TH 15.3 miles 195° 2017-08-11 08:49:35
DL2YCP-10 1 2017-08-11 09:08:14 2017-08-11 09:08:14 JO31TO > JO31SR 10.5 miles 328° 2017-08-11 09:08:14
DL1ZAX-10 8 2017-08-11 07:06:27 2017-08-13 07:54:09 JO41RG > JO41SG 5.9 miles 95° 2017-08-13 07:47:02
DL5TW-13 3 2017-08-11 04:55:51 2017-08-13 09:33:15 JO50MV > JO50JR 15.7 miles 225° 2017-08-11 04:55:51
DL5ARG 7 2017-08-11 04:12:54 2017-08-11 04:20:14 JO60EU > JO60AU 12.0 miles 270° 2017-08-11 04:12:54
DG4DAA-13 30 2017-08-11 08:03:52 2017-08-13 06:49:35 JO41HO > JO31XO 27.8 miles 273° 2017-08-11 08:03:52
DB0INS 38 2017-08-11 04:57:13 2017-08-13 09:34:04 JO50MV > JO50FU 26.6 miles 261° 2017-08-13 09:34:04
DJ6KR-1 4 2017-08-11 04:29:31 2017-08-13 10:05:12 JO50VU > JO50TU 7.5 miles 267° 2017-08-13 10:05:12
DL1ARK-3 5 2017-08-19 07:37:31 2017-08-19 09:52:01 JO61UC > JO60UX 9.2 miles 185° 2017-08-19 07:38:36
DB0GIS-10 1 2017-08-11 06:12:00 2017-08-11 06:12:00 JO40TU > JO40JN 41.1 miles 241° 2017-08-11 06:12:00
DL5DTL-3 29 2017-08-19 07:29:36 2017-08-19 09:54:42 JO61SB > JO61VC 9.5 miles 69° 2017-08-19 07:29:36

Only position packets which were originated by the station are shown here. The range statistics show some extra long hops, because some digipeaters do not correctly add themselves to the digipeater path. Please check the raw packets.
About this site
This page shows real-time information collected from the Automatic Position Reporting System Internet network (APRS-IS). APRS is used by amateur (ham) radio operators to transmit real-time position information, weather data, telemetry and messages over the radio. A vehicle equipped with a GPS receiver, a VHF transmitter or HF transceiver and a small computer device called a tracker transmits it's location, speed and course in a small data packet, which is then received by a nearby iGate receiving site which forwards the packet on the Internet. Systems connected to the Internet can send information on the APRS-IS without a radio transmitter, or collect and display information transmitted anywhere in the world.
FAQ · Blog · Discussion group · Linking to aprs.fi · AIS sites · Service status · Database statistics · Advertising on aprs.fi · Technical details · API · Change log · Planned changes · Credits and thanks · Terms Of Service · iPhone/iPad APRS